sensor_id;sensor_type;location;lat;lon;timestamp;temperature;humidity
29363;DHT22;16349;53.672;10.014;2023-08-30T00:01:37;13.90;99.90
29363;DHT22;16349;53.672;10.014;2023-08-30T00:04:03;13.80;99.90
29363;DHT22;16349;53.672;10.014;2023-08-30T00:06:30;13.80;99.90
29363;DHT22;16349;53.672;10.014;2023-08-30T00:08:57;13.80;99.90
29363;DHT22;16349;53.672;10.014;2023-08-30T00:11:24;13.90;99.90
29363;DHT22;16349;53.672;10.014;2023-08-30T00:13:52;13.90;99.90
29363;DHT22;16349;53.672;10.014;2023-08-30T00:16:20;14.00;99.90
29363;DHT22;16349;53.672;10.014;2023-08-30T00:18:47;13.90;99.90
29363;DHT22;16349;53.672;10.014;2023-08-30T00:21:13;13.90;99.90
29363;DHT22;16349;53.672;10.014;2023-08-30T00:23:42;13.80;99.90
29363;DHT22;16349;53.672;10.014;2023-08-30T00:26:08;13.80;99.90
29363;DHT22;16349;53.672;10.014;2023-08-30T00:28:35;13.70;99.90
29363;DHT22;16349;53.672;10.014;2023-08-30T00:31:02;13.70;99.90
29363;DHT22;16349;53.672;10.014;2023-08-30T00:33:30;13.60;99.90
29363;DHT22;16349;53.672;10.014;2023-08-30T00:35:58;13.50;99.90
29363;DHT22;16349;53.672;10.014;2023-08-30T00:38:26;13.50;99.90
29363;DHT22;16349;53.672;10.014;2023-08-30T00:40:53;13.40;99.90
29363;DHT22;16349;53.672;10.014;2023-08-30T00:43:20;13.40;99.90
29363;DHT22;16349;53.672;10.014;2023-08-30T00:45:48;13.40;99.90
29363;DHT22;16349;53.672;10.014;2023-08-30T00:48:15;13.40;99.90
29363;DHT22;16349;53.672;10.014;2023-08-30T00:50:45;13.30;99.90
29363;DHT22;16349;53.672;10.014;2023-08-30T00:53:12;13.20;99.90
29363;DHT22;16349;53.672;10.014;2023-08-30T00:55:41;13.20;99.90
29363;DHT22;16349;53.672;10.014;2023-08-30T00:58:09;13.20;99.90
29363;DHT22;16349;53.672;10.014;2023-08-30T01:00:38;13.10;99.90
29363;DHT22;16349;53.672;10.014;2023-08-30T01:03:05;13.10;99.90
29363;DHT22;16349;53.672;10.014;2023-08-30T01:05:33;13.10;99.90
29363;DHT22;16349;53.672;10.014;2023-08-30T01:08:01;13.10;99.90
29363;DHT22;16349;53.672;10.014;2023-08-30T01:10:38;13.10;99.90
29363;DHT22;16349;53.672;10.014;2023-08-30T01:13:10;13.10;99.90
29363;DHT22;16349;53.672;10.014;2023-08-30T01:15:39;13.10;99.90
29363;DHT22;16349;53.672;10.014;2023-08-30T01:18:07;13.00;99.90
29363;DHT22;16349;53.672;10.014;2023-08-30T01:20:37;13.00;99.90
29363;DHT22;16349;53.672;10.014;2023-08-30T01:23:11;13.00;99.90
29363;DHT22;16349;53.672;10.014;2023-08-30T01:25:47;13.10;99.90
29363;DHT22;16349;53.672;10.014;2023-08-30T01:28:21;13.10;99.90
29363;DHT22;16349;53.672;10.014;2023-08-30T01:30:51;13.10;99.90
29363;DHT22;16349;53.672;10.014;2023-08-30T01:33:20;13.00;99.90
29363;DHT22;16349;53.672;10.014;2023-08-30T01:35:48;13.00;99.90
29363;DHT22;16349;53.672;10.014;2023-08-30T01:38:15;13.00;99.90
29363;DHT22;16349;53.672;10.014;2023-08-30T01:40:43;13.00;99.90
29363;DHT22;16349;53.672;10.014;2023-08-30T01:43:12;13.10;99.90
29363;DHT22;16349;53.672;10.014;2023-08-30T01:45:42;13.00;99.90
29363;DHT22;16349;53.672;10.014;2023-08-30T01:48:12;13.00;99.90
29363;DHT22;16349;53.672;10.014;2023-08-30T01:50:40;13.10;99.90
29363;DHT22;16349;53.672;10.014;2023-08-30T01:53:10;13.10;99.90
29363;DHT22;16349;53.672;10.014;2023-08-30T01:55:37;13.10;99.90
29363;DHT22;16349;53.672;10.014;2023-08-30T01:58:05;13.00;99.90
29363;DHT22;16349;53.672;10.014;2023-08-30T02:00:32;12.90;99.90
29363;DHT22;16349;53.672;10.014;2023-08-30T02:03:07;12.90;99.90
29363;DHT22;16349;53.672;10.014;2023-08-30T02:05:37;12.90;99.90
29363;DHT22;16349;53.672;10.014;2023-08-30T02:08:12;12.80;99.90
29363;DHT22;16349;53.672;10.014;2023-08-30T02:10:45;12.80;99.90
29363;DHT22;16349;53.672;10.014;2023-08-30T02:13:14;12.70;99.90
29363;DHT22;16349;53.672;10.014;2023-08-30T02:15:42;12.80;99.90
29363;DHT22;16349;53.672;10.014;2023-08-30T02:18:11;12.80;99.90
29363;DHT22;16349;53.672;10.014;2023-08-30T02:20:38;12.80;99.90
29363;DHT22;16349;53.672;10.014;2023-08-30T02:23:09;12.70;99.90
29363;DHT22;16349;53.672;10.014;2023-08-30T02:25:37;12.70;99.90
29363;DHT22;16349;53.672;10.014;2023-08-30T02:28:04;12.80;99.90
29363;DHT22;16349;53.672;10.014;2023-08-30T02:30:32;12.80;99.90
29363;DHT22;16349;53.672;10.014;2023-08-30T02:32:59;12.90;99.90
29363;DHT22;16349;53.672;10.014;2023-08-30T02:35:27;12.80;99.90
29363;DHT22;16349;53.672;10.014;2023-08-30T02:37:54;12.80;99.90
29363;DHT22;16349;53.672;10.014;2023-08-30T02:40:21;12.90;99.90
29363;DHT22;16349;53.672;10.014;2023-08-30T02:42:48;13.00;99.90
29363;DHT22;16349;53.672;10.014;2023-08-30T02:45:15;13.00;99.90
29363;DHT22;16349;53.672;10.014;2023-08-30T02:47:44;12.90;99.90
29363;DHT22;16349;53.672;10.014;2023-08-30T02:50:10;12.90;99.90
29363;DHT22;16349;53.672;10.014;2023-08-30T02:52:39;13.00;99.90
29363;DHT22;16349;53.672;10.014;2023-08-30T02:55:06;12.90;99.90
29363;DHT22;16349;53.672;10.014;2023-08-30T02:57:33;12.80;99.90
29363;DHT22;16349;53.672;10.014;2023-08-30T03:00:00;12.80;99.90
29363;DHT22;16349;53.672;10.014;2023-08-30T03:02:26;12.80;99.90
29363;DHT22;16349;53.672;10.014;2023-08-30T03:04:54;12.80;99.90
29363;DHT22;16349;53.672;10.014;2023-08-30T03:07:22;12.80;99.90
29363;DHT22;16349;53.672;10.014;2023-08-30T03:09:53;12.80;99.90
29363;DHT22;16349;53.672;10.014;2023-08-30T03:12:20;12.80;99.90
29363;DHT22;16349;53.672;10.014;2023-08-30T03:14:47;12.80;99.90
29363;DHT22;16349;53.672;10.014;2023-08-30T03:17:14;12.80;99.90
29363;DHT22;16349;53.672;10.014;2023-08-30T03:19:41;12.80;99.90
29363;DHT22;16349;53.672;10.014;2023-08-30T03:22:08;12.80;99.90
29363;DHT22;16349;53.672;10.014;2023-08-30T03:24:35;12.90;99.90
29363;DHT22;16349;53.672;10.014;2023-08-30T03:27:03;12.90;99.90
29363;DHT22;16349;53.672;10.014;2023-08-30T03:29:30;13.00;99.90
29363;DHT22;16349;53.672;10.014;2023-08-30T03:31:56;13.00;99.90
29363;DHT22;16349;53.672;10.014;2023-08-30T03:34:23;13.00;99.90
29363;DHT22;16349;53.672;10.014;2023-08-30T03:36:50;13.00;99.90
29363;DHT22;16349;53.672;10.014;2023-08-30T03:39:20;13.00;99.90
29363;DHT22;16349;53.672;10.014;2023-08-30T03:41:47;13.00;99.90
29363;DHT22;16349;53.672;10.014;2023-08-30T03:44:15;13.10;99.90
29363;DHT22;16349;53.672;10.014;2023-08-30T03:46:42;13.10;99.90
29363;DHT22;16349;53.672;10.014;2023-08-30T03:49:09;13.00;99.90
29363;DHT22;16349;53.672;10.014;2023-08-30T03:51:36;13.00;99.90
29363;DHT22;16349;53.672;10.014;2023-08-30T03:54:03;13.10;99.90
29363;DHT22;16349;53.672;10.014;2023-08-30T03:56:30;13.10;99.90
29363;DHT22;16349;53.672;10.014;2023-08-30T03:58:56;13.10;99.90
29363;DHT22;16349;53.672;10.014;2023-08-30T04:01:25;13.10;99.90
29363;DHT22;16349;53.672;10.014;2023-08-30T04:03:52;13.10;99.90
29363;DHT22;16349;53.672;10.014;2023-08-30T04:06:19;13.10;99.90
29363;DHT22;16349;53.672;10.014;2023-08-30T04:08:48;13.10;99.90
29363;DHT22;16349;53.672;10.014;2023-08-30T04:11:16;13.20;99.90
29363;DHT22;16349;53.672;10.014;2023-08-30T04:13:45;13.20;99.90
29363;DHT22;16349;53.672;10.014;2023-08-30T04:16:11;13.20;99.90
29363;DHT22;16349;53.672;10.014;2023-08-30T04:18:40;13.20;99.90
29363;DHT22;16349;53.672;10.014;2023-08-30T04:21:06;13.20;99.90
29363;DHT22;16349;53.672;10.014;2023-08-30T04:23:34;13.20;99.90
29363;DHT22;16349;53.672;10.014;2023-08-30T04:26:01;13.20;99.90
29363;DHT22;16349;53.672;10.014;2023-08-30T04:28:28;13.20;99.90
29363;DHT22;16349;53.672;10.014;2023-08-30T04:30:55;13.20;99.90
29363;DHT22;16349;53.672;10.014;2023-08-30T04:33:22;13.20;99.90
29363;DHT22;16349;53.672;10.014;2023-08-30T04:35:51;13.20;99.90
29363;DHT22;16349;53.672;10.014;2023-08-30T04:38:18;13.30;99.90
29363;DHT22;16349;53.672;10.014;2023-08-30T04:40:46;13.30;99.90
29363;DHT22;16349;53.672;10.014;2023-08-30T04:43:14;13.20;99.90
29363;DHT22;16349;53.672;10.014;2023-08-30T04:45:41;13.30;99.90
29363;DHT22;16349;53.672;10.014;2023-08-30T04:48:08;13.30;99.90
29363;DHT22;16349;53.672;10.014;2023-08-30T04:50:36;13.30;99.90
29363;DHT22;16349;53.672;10.014;2023-08-30T04:53:07;13.30;99.90
29363;DHT22;16349;53.672;10.014;2023-08-30T04:55:35;13.40;99.90
29363;DHT22;16349;53.672;10.014;2023-08-30T04:58:02;13.40;99.90
29363;DHT22;16349;53.672;10.014;2023-08-30T05:00:36;13.40;99.90
29363;DHT22;16349;53.672;10.014;2023-08-30T05:03:04;13.40;99.90
29363;DHT22;16349;53.672;10.014;2023-08-30T05:05:30;13.50;99.90
29363;DHT22;16349;53.672;10.014;2023-08-30T05:07:58;13.50;99.90
29363;DHT22;16349;53.672;10.014;2023-08-30T05:10:27;13.50;99.90
29363;DHT22;16349;53.672;10.014;2023-08-30T05:12:54;13.50;99.90
29363;DHT22;16349;53.672;10.014;2023-08-30T05:15:20;13.60;99.90
29363;DHT22;16349;53.672;10.014;2023-08-30T05:17:47;13.60;99.90
29363;DHT22;16349;53.672;10.014;2023-08-30T05:20:14;13.60;99.90
29363;DHT22;16349;53.672;10.014;2023-08-30T05:22:41;13.70;99.90
29363;DHT22;16349;53.672;10.014;2023-08-30T05:25:08;13.70;99.90
29363;DHT22;16349;53.672;10.014;2023-08-30T05:27:36;13.70;99.90
29363;DHT22;16349;53.672;10.014;2023-08-30T05:30:04;13.70;99.90
29363;DHT22;16349;53.672;10.014;2023-08-30T05:32:32;13.80;99.90
29363;DHT22;16349;53.672;10.014;2023-08-30T05:35:19;13.80;99.90
29363;DHT22;16349;53.672;10.014;2023-08-30T05:38:05;13.80;99.90
29363;DHT22;16349;53.672;10.014;2023-08-30T05:40:45;13.90;99.90
29363;DHT22;16349;53.672;10.014;2023-08-30T05:43:13;13.90;99.90
29363;DHT22;16349;53.672;10.014;2023-08-30T05:45:41;14.00;99.90
29363;DHT22;16349;53.672;10.014;2023-08-30T05:48:08;14.00;99.90
29363;DHT22;16349;53.672;10.014;2023-08-30T05:50:34;14.00;99.90
29363;DHT22;16349;53.672;10.014;2023-08-30T05:53:02;14.10;99.90
29363;DHT22;16349;53.672;10.014;2023-08-30T05:55:29;14.10;99.90
29363;DHT22;16349;53.672;10.014;2023-08-30T05:57:56;14.20;99.90
29363;DHT22;16349;53.672;10.014;2023-08-30T06:00:24;14.20;99.90
29363;DHT22;16349;53.672;10.014;2023-08-30T06:02:52;14.30;99.90
29363;DHT22;16349;53.672;10.014;2023-08-30T06:05:19;14.30;99.90
29363;DHT22;16349;53.672;10.014;2023-08-30T06:07:45;14.40;99.90
29363;DHT22;16349;53.672;10.014;2023-08-30T06:10:12;14.50;99.90
29363;DHT22;16349;53.672;10.014;2023-08-30T06:12:39;14.50;99.90
29363;DHT22;16349;53.672;10.014;2023-08-30T06:15:07;14.60;99.90
29363;DHT22;16349;53.672;10.014;2023-08-30T06:17:35;14.70;99.90
29363;DHT22;16349;53.672;10.014;2023-08-30T06:20:02;14.70;99.90
29363;DHT22;16349;53.672;10.014;2023-08-30T06:22:30;14.80;99.90
29363;DHT22;16349;53.672;10.014;2023-08-30T06:24:57;14.80;99.90
29363;DHT22;16349;53.672;10.014;2023-08-30T06:27:24;14.90;99.90
29363;DHT22;16349;53.672;10.014;2023-08-30T06:29:50;15.00;99.90
29363;DHT22;16349;53.672;10.014;2023-08-30T06:32:17;15.10;99.90
29363;DHT22;16349;53.672;10.014;2023-08-30T06:34:46;15.20;99.90
29363;DHT22;16349;53.672;10.014;2023-08-30T06:37:13;15.30;99.90
29363;DHT22;16349;53.672;10.014;2023-08-30T06:39:40;15.40;99.90
29363;DHT22;16349;53.672;10.014;2023-08-30T06:42:07;15.40;99.90
29363;DHT22;16349;53.672;10.014;2023-08-30T06:44:33;15.50;99.90
29363;DHT22;16349;53.672;10.014;2023-08-30T06:47:00;15.60;99.90
29363;DHT22;16349;53.672;10.014;2023-08-30T06:49:28;15.60;99.90
29363;DHT22;16349;53.672;10.014;2023-08-30T06:51:58;15.70;99.90
29363;DHT22;16349;53.672;10.014;2023-08-30T06:54:27;15.80;99.90
29363;DHT22;16349;53.672;10.014;2023-08-30T06:56:59;15.80;99.90
29363;DHT22;16349;53.672;10.014;2023-08-30T06:59:26;15.90;99.90
29363;DHT22;16349;53.672;10.014;2023-08-30T07:01:53;15.90;99.90
29363;DHT22;16349;53.672;10.014;2023-08-30T07:04:20;15.90;99.90
29363;DHT22;16349;53.672;10.014;2023-08-30T07:06:47;15.90;99.90
29363;DHT22;16349;53.672;10.014;2023-08-30T07:09:16;16.00;99.90
29363;DHT22;16349;53.672;10.014;2023-08-30T07:11:43;16.10;99.90
29363;DHT22;16349;53.672;10.014;2023-08-30T07:14:10;16.10;99.90
29363;DHT22;16349;53.672;10.014;2023-08-30T07:16:37;16.20;99.90
29363;DHT22;16349;53.672;10.014;2023-08-30T07:19:04;16.30;99.90
29363;DHT22;16349;53.672;10.014;2023-08-30T07:21:31;16.30;99.90
29363;DHT22;16349;53.672;10.014;2023-08-30T07:23:58;16.40;99.90
29363;DHT22;16349;53.672;10.014;2023-08-30T07:26:26;16.40;99.90
29363;DHT22;16349;53.672;10.014;2023-08-30T07:28:53;16.40;99.90
29363;DHT22;16349;53.672;10.014;2023-08-30T07:31:20;16.50;99.90
29363;DHT22;16349;53.672;10.014;2023-08-30T07:33:47;16.50;99.90
29363;DHT22;16349;53.672;10.014;2023-08-30T07:36:14;16.60;99.90
29363;DHT22;16349;53.672;10.014;2023-08-30T07:38:40;16.70;99.90
29363;DHT22;16349;53.672;10.014;2023-08-30T07:41:07;16.70;99.90
29363;DHT22;16349;53.672;10.014;2023-08-30T07:43:35;16.80;99.90
29363;DHT22;16349;53.672;10.014;2023-08-30T07:46:02;16.70;99.90
29363;DHT22;16349;53.672;10.014;2023-08-30T07:48:29;16.80;99.90
29363;DHT22;16349;53.672;10.014;2023-08-30T07:50:56;16.80;99.90
29363;DHT22;16349;53.672;10.014;2023-08-30T07:53:23;16.80;99.90
29363;DHT22;16349;53.672;10.014;2023-08-30T07:55:50;16.90;99.90
29363;DHT22;16349;53.672;10.014;2023-08-30T07:58:17;16.90;99.90
29363;DHT22;16349;53.672;10.014;2023-08-30T08:00:50;17.00;99.90
29363;DHT22;16349;53.672;10.014;2023-08-30T08:03:17;17.10;99.90
29363;DHT22;16349;53.672;10.014;2023-08-30T08:05:44;17.10;99.90
29363;DHT22;16349;53.672;10.014;2023-08-30T08:08:11;17.20;99.90
29363;DHT22;16349;53.672;10.014;2023-08-30T08:10:38;17.10;99.90
29363;DHT22;16349;53.672;10.014;2023-08-30T08:13:05;17.20;99.90
29363;DHT22;16349;53.672;10.014;2023-08-30T08:15:31;17.20;99.90
29363;DHT22;16349;53.672;10.014;2023-08-30T08:18:00;17.20;99.90
29363;DHT22;16349;53.672;10.014;2023-08-30T08:20:28;17.30;99.90
29363;DHT22;16349;53.672;10.014;2023-08-30T08:22:55;17.40;99.90
29363;DHT22;16349;53.672;10.014;2023-08-30T08:25:22;17.40;99.90
29363;DHT22;16349;53.672;10.014;2023-08-30T08:27:49;17.50;99.90
29363;DHT22;16349;53.672;10.014;2023-08-30T08:30:16;17.50;99.90
29363;DHT22;16349;53.672;10.014;2023-08-30T08:32:45;17.40;99.90
29363;DHT22;16349;53.672;10.014;2023-08-30T08:35:14;17.50;99.90
29363;DHT22;16349;53.672;10.014;2023-08-30T08:37:41;17.50;99.90
29363;DHT22;16349;53.672;10.014;2023-08-30T08:40:09;17.60;99.90
29363;DHT22;16349;53.672;10.014;2023-08-30T08:42:36;17.70;99.90
29363;DHT22;16349;53.672;10.014;2023-08-30T08:45:04;17.70;99.90
29363;DHT22;16349;53.672;10.014;2023-08-30T08:47:31;17.80;99.90
29363;DHT22;16349;53.672;10.014;2023-08-30T08:49:59;17.80;99.90
29363;DHT22;16349;53.672;10.014;2023-08-30T08:52:29;17.90;99.90
29363;DHT22;16349;53.672;10.014;2023-08-30T08:54:57;18.00;99.90
29363;DHT22;16349;53.672;10.014;2023-08-30T08:57:26;18.00;99.90
29363;DHT22;16349;53.672;10.014;2023-08-30T08:59:55;18.10;99.90
29363;DHT22;16349;53.672;10.014;2023-08-30T09:02:22;18.20;99.90
29363;DHT22;16349;53.672;10.014;2023-08-30T09:04:50;18.20;99.90
29363;DHT22;16349;53.672;10.014;2023-08-30T09:07:18;18.20;99.90
29363;DHT22;16349;53.672;10.014;2023-08-30T09:09:47;18.20;99.90
29363;DHT22;16349;53.672;10.014;2023-08-30T09:12:14;18.30;99.90
29363;DHT22;16349;53.672;10.014;2023-08-30T09:14:41;18.40;99.90
29363;DHT22;16349;53.672;10.014;2023-08-30T09:17:08;18.40;99.90
29363;DHT22;16349;53.672;10.014;2023-08-30T09:19:36;18.50;99.90
29363;DHT22;16349;53.672;10.014;2023-08-30T09:22:03;18.50;99.90
29363;DHT22;16349;53.672;10.014;2023-08-30T09:24:38;18.60;99.90
29363;DHT22;16349;53.672;10.014;2023-08-30T09:27:07;18.60;99.90
29363;DHT22;16349;53.672;10.014;2023-08-30T09:29:35;18.60;99.90
29363;DHT22;16349;53.672;10.014;2023-08-30T09:32:03;18.70;99.90
29363;DHT22;16349;53.672;10.014;2023-08-30T09:34:30;18.80;99.90
29363;DHT22;16349;53.672;10.014;2023-08-30T09:36:57;18.90;99.90
29363;DHT22;16349;53.672;10.014;2023-08-30T09:39:27;19.00;99.90
29363;DHT22;16349;53.672;10.014;2023-08-30T09:41:54;19.00;99.90
29363;DHT22;16349;53.672;10.014;2023-08-30T09:44:28;19.10;99.90
29363;DHT22;16349;53.672;10.014;2023-08-30T09:46:56;19.10;99.90
29363;DHT22;16349;53.672;10.014;2023-08-30T09:49:25;19.10;99.90
29363;DHT22;16349;53.672;10.014;2023-08-30T09:51:54;19.00;99.90
29363;DHT22;16349;53.672;10.014;2023-08-30T09:54:22;18.90;99.90
29363;DHT22;16349;53.672;10.014;2023-08-30T09:56:50;18.90;99.90
29363;DHT22;16349;53.672;10.014;2023-08-30T09:59:19;19.00;99.90
29363;DHT22;16349;53.672;10.014;2023-08-30T10:01:48;18.90;99.90
29363;DHT22;16349;53.672;10.014;2023-08-30T10:04:19;19.00;99.90
29363;DHT22;16349;53.672;10.014;2023-08-30T10:06:47;19.10;99.90
29363;DHT22;16349;53.672;10.014;2023-08-30T10:09:15;19.10;99.90
29363;DHT22;16349;53.672;10.014;2023-08-30T10:11:45;19.10;99.90
29363;DHT22;16349;53.672;10.014;2023-08-30T10:14:13;19.10;99.90
29363;DHT22;16349;53.672;10.014;2023-08-30T10:16:42;19.20;99.90
29363;DHT22;16349;53.672;10.014;2023-08-30T10:19:14;19.30;99.90
29363;DHT22;16349;53.672;10.014;2023-08-30T10:21:43;19.20;99.90
29363;DHT22;16349;53.672;10.014;2023-08-30T10:24:12;19.20;99.90
29363;DHT22;16349;53.672;10.014;2023-08-30T10:26:43;19.20;99.90
29363;DHT22;16349;53.672;10.014;2023-08-30T10:29:12;19.20;99.90
29363;DHT22;16349;53.672;10.014;2023-08-30T10:31:39;19.20;99.90
29363;DHT22;16349;53.672;10.014;2023-08-30T10:34:14;19.20;99.90
29363;DHT22;16349;53.672;10.014;2023-08-30T10:36:42;19.20;99.90
29363;DHT22;16349;53.672;10.014;2023-08-30T10:39:11;19.20;99.90
29363;DHT22;16349;53.672;10.014;2023-08-30T10:41:54;19.20;99.90
29363;DHT22;16349;53.672;10.014;2023-08-30T10:44:22;19.20;99.90
29363;DHT22;16349;53.672;10.014;2023-08-30T10:46:52;19.20;99.90
29363;DHT22;16349;53.672;10.014;2023-08-30T10:49:21;19.20;99.90
29363;DHT22;16349;53.672;10.014;2023-08-30T10:51:55;19.30;99.90
29363;DHT22;16349;53.672;10.014;2023-08-30T10:54:23;19.40;99.90
29363;DHT22;16349;53.672;10.014;2023-08-30T10:56:55;19.40;99.90
29363;DHT22;16349;53.672;10.014;2023-08-30T10:59:23;19.50;99.90
29363;DHT22;16349;53.672;10.014;2023-08-30T11:01:51;19.50;99.90
29363;DHT22;16349;53.672;10.014;2023-08-30T11:04:20;19.70;99.90
29363;DHT22;16349;53.672;10.014;2023-08-30T11:06:49;19.80;99.90
29363;DHT22;16349;53.672;10.014;2023-08-30T11:09:18;19.80;99.90
29363;DHT22;16349;53.672;10.014;2023-08-30T11:11:46;19.90;99.90
29363;DHT22;16349;53.672;10.014;2023-08-30T11:14:13;20.00;99.90
29363;DHT22;16349;53.672;10.014;2023-08-30T11:16:40;19.90;99.90
29363;DHT22;16349;53.672;10.014;2023-08-30T11:19:08;19.90;99.90
29363;DHT22;16349;53.672;10.014;2023-08-30T11:21:38;20.10;99.90
29363;DHT22;16349;53.672;10.014;2023-08-30T11:24:06;20.10;99.90
29363;DHT22;16349;53.672;10.014;2023-08-30T11:26:34;20.10;99.90
29363;DHT22;16349;53.672;10.014;2023-08-30T11:29:04;20.20;99.90
29363;DHT22;16349;53.672;10.014;2023-08-30T11:31:31;20.10;99.90
29363;DHT22;16349;53.672;10.014;2023-08-30T11:33:59;20.00;99.90
29363;DHT22;16349;53.672;10.014;2023-08-30T11:36:27;20.10;99.90
29363;DHT22;16349;53.672;10.014;2023-08-30T11:38:56;20.10;99.90
29363;DHT22;16349;53.672;10.014;2023-08-30T11:41:24;20.20;99.90
29363;DHT22;16349;53.672;10.014;2023-08-30T11:43:52;20.20;99.90
29363;DHT22;16349;53.672;10.014;2023-08-30T11:46:19;20.20;99.90
29363;DHT22;16349;53.672;10.014;2023-08-30T11:48:47;20.10;99.90
29363;DHT22;16349;53.672;10.014;2023-08-30T11:51:15;20.20;99.90
29363;DHT22;16349;53.672;10.014;2023-08-30T11:53:43;20.30;99.90
29363;DHT22;16349;53.672;10.014;2023-08-30T11:56:12;20.30;99.90
29363;DHT22;16349;53.672;10.014;2023-08-30T11:58:39;20.40;99.90
29363;DHT22;16349;53.672;10.014;2023-08-30T12:01:07;20.50;99.90
29363;DHT22;16349;53.672;10.014;2023-08-30T12:03:35;20.60;99.90
29363;DHT22;16349;53.672;10.014;2023-08-30T12:06:08;20.70;99.90
29363;DHT22;16349;53.672;10.014;2023-08-30T12:08:35;20.70;99.90
29363;DHT22;16349;53.672;10.014;2023-08-30T12:11:02;20.70;99.90
29363;DHT22;16349;53.672;10.014;2023-08-30T12:13:32;20.60;99.90
29363;DHT22;16349;53.672;10.014;2023-08-30T12:16:01;20.60;99.90
29363;DHT22;16349;53.672;10.014;2023-08-30T12:18:31;20.70;99.90
29363;DHT22;16349;53.672;10.014;2023-08-30T12:20:59;20.80;99.90
29363;DHT22;16349;53.672;10.014;2023-08-30T12:23:27;21.00;99.90
29363;DHT22;16349;53.672;10.014;2023-08-30T12:26:03;21.10;99.90
29363;DHT22;16349;53.672;10.014;2023-08-30T12:28:33;21.10;99.90
29363;DHT22;16349;53.672;10.014;2023-08-30T12:31:00;21.00;99.90
29363;DHT22;16349;53.672;10.014;2023-08-30T12:33:28;20.90;99.90
29363;DHT22;16349;53.672;10.014;2023-08-30T12:35:55;21.00;99.90
29363;DHT22;16349;53.672;10.014;2023-08-30T12:38:22;21.00;99.90
29363;DHT22;16349;53.672;10.014;2023-08-30T12:40:50;20.90;99.90
29363;DHT22;16349;53.672;10.014;2023-08-30T12:43:18;20.90;99.90
29363;DHT22;16349;53.672;10.014;2023-08-30T12:45:48;21.00;99.90
29363;DHT22;16349;53.672;10.014;2023-08-30T12:48:17;21.10;99.90
29363;DHT22;16349;53.672;10.014;2023-08-30T12:50:45;21.40;99.90
29363;DHT22;16349;53.672;10.014;2023-08-30T12:53:13;21.40;99.90
29363;DHT22;16349;53.672;10.014;2023-08-30T12:55:40;21.30;99.90
29363;DHT22;16349;53.672;10.014;2023-08-30T12:58:07;21.20;99.90
29363;DHT22;16349;53.672;10.014;2023-08-30T13:00:35;21.20;99.90
29363;DHT22;16349;53.672;10.014;2023-08-30T13:03:03;21.20;99.90
29363;DHT22;16349;53.672;10.014;2023-08-30T13:05:30;21.20;99.90
29363;DHT22;16349;53.672;10.014;2023-08-30T13:07:57;21.20;99.90
29363;DHT22;16349;53.672;10.014;2023-08-30T13:10:24;21.30;99.90
29363;DHT22;16349;53.672;10.014;2023-08-30T13:12:51;21.30;99.90
29363;DHT22;16349;53.672;10.014;2023-08-30T13:15:18;21.40;99.90
29363;DHT22;16349;53.672;10.014;2023-08-30T13:17:45;21.60;99.90
29363;DHT22;16349;53.672;10.014;2023-08-30T13:20:13;21.90;99.90
29363;DHT22;16349;53.672;10.014;2023-08-30T13:22:39;22.00;99.90
29363;DHT22;16349;53.672;10.014;2023-08-30T13:25:07;21.90;99.90
29363;DHT22;16349;53.672;10.014;2023-08-30T13:27:34;21.90;99.90
29363;DHT22;16349;53.672;10.014;2023-08-30T13:30:01;22.20;99.90
29363;DHT22;16349;53.672;10.014;2023-08-30T13:32:28;22.70;99.90
29363;DHT22;16349;53.672;10.014;2023-08-30T13:34:55;23.10;99.90
29363;DHT22;16349;53.672;10.014;2023-08-30T13:37:23;23.20;99.90
29363;DHT22;16349;53.672;10.014;2023-08-30T13:39:50;23.20;99.60
29363;DHT22;16349;53.672;10.014;2023-08-30T13:42:17;23.00;99.80
29363;DHT22;16349;53.672;10.014;2023-08-30T13:44:43;22.90;99.50
29363;DHT22;16349;53.672;10.014;2023-08-30T13:47:11;23.00;99.60
29363;DHT22;16349;53.672;10.014;2023-08-30T13:49:38;23.10;99.50
29363;DHT22;16349;53.672;10.014;2023-08-30T13:52:05;22.90;98.70
29363;DHT22;16349;53.672;10.014;2023-08-30T13:54:34;22.50;98.40
29363;DHT22;16349;53.672;10.014;2023-08-30T13:57:01;22.30;98.30
29363;DHT22;16349;53.672;10.014;2023-08-30T13:59:28;22.70;98.10
29363;DHT22;16349;53.672;10.014;2023-08-30T14:01:56;23.20;98.30
29363;DHT22;16349;53.672;10.014;2023-08-30T14:04:24;23.60;97.40
29363;DHT22;16349;53.672;10.014;2023-08-30T14:06:51;24.10;95.90
29363;DHT22;16349;53.672;10.014;2023-08-30T14:09:18;24.20;95.10
29363;DHT22;16349;53.672;10.014;2023-08-30T14:11:46;24.40;95.60
29363;DHT22;16349;53.672;10.014;2023-08-30T14:14:13;24.70;94.60
29363;DHT22;16349;53.672;10.014;2023-08-30T14:16:40;24.30;94.40
29363;DHT22;16349;53.672;10.014;2023-08-30T14:19:07;23.80;94.50
29363;DHT22;16349;53.672;10.014;2023-08-30T14:21:34;23.90;94.70
29363;DHT22;16349;53.672;10.014;2023-08-30T14:24:00;24.10;95.40
29363;DHT22;16349;53.672;10.014;2023-08-30T14:26:28;24.30;94.20
29363;DHT22;16349;53.672;10.014;2023-08-30T14:28:56;24.40;93.80
29363;DHT22;16349;53.672;10.014;2023-08-30T14:31:23;24.20;93.90
29363;DHT22;16349;53.672;10.014;2023-08-30T14:33:54;23.80;94.70
29363;DHT22;16349;53.672;10.014;2023-08-30T14:36:21;23.20;94.30
29363;DHT22;16349;53.672;10.014;2023-08-30T14:38:48;22.70;94.60
29363;DHT22;16349;53.672;10.014;2023-08-30T14:41:14;22.40;95.30
29363;DHT22;16349;53.672;10.014;2023-08-30T14:43:42;22.20;95.80
29363;DHT22;16349;53.672;10.014;2023-08-30T14:46:11;22.00;96.30
29363;DHT22;16349;53.672;10.014;2023-08-30T14:48:37;21.90;96.50
29363;DHT22;16349;53.672;10.014;2023-08-30T14:51:05;21.80;97.40
29363;DHT22;16349;53.672;10.014;2023-08-30T14:53:33;21.70;97.40
29363;DHT22;16349;53.672;10.014;2023-08-30T14:55:59;21.70;97.50
29363;DHT22;16349;53.672;10.014;2023-08-30T14:58:26;21.70;97.60
29363;DHT22;16349;53.672;10.014;2023-08-30T15:00:53;21.50;97.40
29363;DHT22;16349;53.672;10.014;2023-08-30T15:03:22;21.50;98.10
29363;DHT22;16349;53.672;10.014;2023-08-30T15:05:53;21.40;98.10
29363;DHT22;16349;53.672;10.014;2023-08-30T15:08:20;21.30;98.50
29363;DHT22;16349;53.672;10.014;2023-08-30T15:10:47;21.30;99.00
29363;DHT22;16349;53.672;10.014;2023-08-30T15:13:14;21.30;98.70
29363;DHT22;16349;53.672;10.014;2023-08-30T15:15:41;21.30;99.00
29363;DHT22;16349;53.672;10.014;2023-08-30T15:18:08;21.20;98.70
29363;DHT22;16349;53.672;10.014;2023-08-30T15:20:37;21.10;99.20